TDPD/DOM METAR and TAF weather

Enter ICAO airport designator
Station Type Date Time Source
TDPD METAR 2019/06/26 16:00 UTC NOAA

TDPD 261600Z 11010KT 9999 SCT018 30/24 Q1018


Station Type Date Time Source
TDPD Decoded METAR 2019/06/26 16:00 UTC NOAA

Melville Hall Airport, Dominica (TDPD) 15-32N 061-18W 14M
Jun 26, 2019 - 12:00 PM EDT / 2019.06.26 1600 UTC
Wind: from the ESE (110 degrees) at 12 MPH (10 KT):0
Visibility: greater than 7 mile(s):0
Sky conditions: partly cloudy
Temperature: 86 F (30 C)
Heat index: 95.0 F (35.0 C):1
Dew Point: 75 F (24 C)
Relative Humidity: 70%
Pressure (altimeter): 30.06 in. Hg (1018 hPa)
ob: TDPD 261600Z 11010KT 9999 SCT018 30/24 Q1018
cycle: 16

Station Type Date Time Source
TDPD TAF 2019/06/26 12:48 UTC NOAA

TAF TDPD 261100Z 2612/2712 12006KT 9999 SCT018 PROB30
TEMPO 2706/2712 SHRA BKN015

Example: see airport list